»·PEaware :: UAL1399 KGEG-KSEA

UAL1399 :: KGEG-KSEA

FLIGHT INFORMATION

Flight Status: Arrived
Operator:
United Airlines
More flights by this operator :: More flights under this callsign
Pilot: David C. (16084)
Aircraft: AIRBUS A320
(A320)
More flights by this aircraft type
Origin: KGEG Spokane Intl
United States
Destination: KSEA Seattle-Tacoma Intl
United States
More flights between these airports :: More routes between these airports
Route: TEMPL GLASR1
File this flight plan on PilotEdge
Remarks:
Altitude:
(Current/Filed)
24,000ft
Speed:
(Current/Filed)
456kts
Departed: 04-May-18 12:42 PM
Arrived: 04-May-18 01:23 PM
Distance/Time
Traveled:
194nm/0:41
Distance/Time
To Go:
Arrived

Flight Plot

Page will automatically refresh every two minutes.

Flight plan parsing failed; only flown route is shown


Map Options




Map Legend


Flown Route
Filed Route
Departure Airport
Arrival Airport
Navaid (VOR, NDB)
Fix

Horizontal Profiles

Position Reports

Time Latitude Longitude Heading Altitude Ground
Speed
04-May-18 12:19 47.625815 -117.534437 231 2393ft 0kts
04-May-18 12:20 47.625815 -117.534437 231 2393ft 0kts
04-May-18 12:21 47.625815 -117.534437 231 2393ft 0kts
04-May-18 12:22 47.625815 -117.534437 231 2393ft 0kts
04-May-18 12:23 47.625815 -117.534437 231 2393ft 0kts
04-May-18 12:24 47.625815 -117.534437 231 2393ft 0kts
04-May-18 12:25 47.625815 -117.534437 231 2393ft 0kts
04-May-18 12:26 47.625815 -117.534437 231 2393ft 0kts
04-May-18 12:27 47.625815 -117.534437 231 2393ft 0kts
04-May-18 12:28 47.625815 -117.534437 231 2393ft 0kts
04-May-18 12:29 47.625815 -117.534437 231 2393ft 0kts
04-May-18 12:30 47.625815 -117.534437 231 2393ft 0kts
04-May-18 12:31 47.626112 -117.534255 176 2393ft 2kts
04-May-18 12:32 47.626256 -117.534300 162 2393ft 0kts
04-May-18 12:33 47.626256 -117.534300 162 2393ft 0kts
04-May-18 12:34 47.626256 -117.534300 162 2393ft 0kts
04-May-18 12:35 47.626256 -117.534300 162 2393ft 0kts
04-May-18 12:36 47.626256 -117.534300 162 2393ft 0kts
04-May-18 12:37 47.625198 -117.531345 45 2393ft 15kts
04-May-18 12:38 47.629236 -117.525293 43 2393ft 22kts
04-May-18 12:40 47.632058 -117.521092 46 2393ft 0kts
04-May-18 12:41 47.630919 -117.518721 209 2393ft 14kts
04-May-18 12:42 47.629725 -117.520565 224 2393ft 56kts
04-May-18 12:43 47.598323 -117.568126 223 4151ft 200kts
04-May-18 12:44 47.557055 -117.623521 239 7717ft 209kts
04-May-18 12:45 47.559774 -117.715888 275 10327ft 266kts
04-May-18 12:46 47.570778 -117.825035 276 12039ft 270kts
04-May-18 12:47 47.582229 -117.937369 276 14524ft 285kts
04-May-18 12:48 47.594785 -118.060636 276 17103ft 316kts
04-May-18 12:49 47.607900 -118.190986 276 19885ft 326kts
04-May-18 12:50 47.621337 -118.326000 276 22359ft 337kts
04-May-18 12:51 47.635294 -118.467866 276 23843ft 367kts
04-May-18 12:52 47.650562 -118.624954 277 24217ft 413kts
04-May-18 12:53 47.666957 -118.796500 276 24215ft 448kts
04-May-18 12:54 47.684104 -118.979733 276 24218ft 447kts
04-May-18 12:55 47.700921 -119.162264 276 24212ft 446kts
04-May-18 12:56 47.717427 -119.344412 276 24208ft 446kts
04-May-18 12:57 47.733465 -119.527154 276 24208ft 446kts
04-May-18 12:58 47.746769 -119.696672 275 24209ft 444kts
04-May-18 12:59 47.760709 -119.876134 275 24209ft 443kts
04-May-18 13:00 47.774570 -120.058130 275 24209ft 446kts
04-May-18 13:01 47.788196 -120.241153 275 24208ft 443kts
04-May-18 13:02 47.801415 -120.422580 275 24208ft 443kts
04-May-18 13:03 47.814231 -120.604953 275 24208ft 443kts
04-May-18 13:04 47.826839 -120.784388 274 23454ft 439kts
04-May-18 13:05 47.838800 -120.960100 274 20851ft 420kts
04-May-18 13:06 47.850007 -121.128491 274 18252ft 401kts
04-May-18 13:07 47.860460 -121.289056 274 15661ft 384kts
04-May-18 13:08 47.870290 -121.443286 274 13408ft 359kts
04-May-18 13:09 47.878739 -121.579412 274 12609ft 307kts
04-May-18 13:10 47.884252 -121.682481 263 12129ft 275kts
04-May-18 13:11 47.840383 -121.766851 223 11111ft 275kts
04-May-18 13:12 47.785190 -121.841085 223 10050ft 260kts
04-May-18 13:13 47.754899 -121.933667 266 10038ft 258kts
04-May-18 13:14 47.753982 -122.036346 267 8717ft 248kts
04-May-18 13:15 47.753493 -122.135380 267 6768ft 241kts
04-May-18 13:16 47.738591 -122.222680 246 5010ft 232kts
04-May-18 13:17 47.715046 -122.306295 222 4030ft 199kts
04-May-18 13:18 47.665995 -122.313939 170 3817ft 189kts
04-May-18 13:19 47.613638 -122.305645 183 3040ft 188kts
04-May-18 13:20 47.563859 -122.306867 180 2422ft 187kts
04-May-18 13:21 47.511085 -122.307340 180 1394ft 186kts
04-May-18 13:22 47.468270 -122.307718 180 568ft 125kts
04-May-18 13:23 47.446843 -122.307873 180 442ft 18kts
04-May-18 13:24 47.442728 -122.306317 180 442ft 21kts

Navigation Log

Ident Type
Flight plan parsing failed, navigation log unavailable